Main page
METAR-TAF:

METAR-TAF

Airports :

Ventspils International Airport

Ventspils, Latvia

latitude: 57-21-28N, longitude: 021-32-39E, elevation: 6 m

Current weather observation

The report was made 20 minutes ago, at 22:50 UTC
Wind 8 kt from the Northeast
Temperature -2°C
Humidity 86%
Pressure 1008 hPa
Visibility 10 km or more
no clouds below 1500 m and no cumulonimbus

METAR: EVVA 042250Z AUTO 05008KT CAVOK M02/M04 Q1008

Time: 01:10 (23:10 UTC)

Forecast

The report was made 9 hours and 3 minutes ago, at 14:07 UTC
Forecast valid from 04 at 15 UTC to 04 at 24 UTC
Wind 7 kt from the East/Northeast
Visibility 10 km or more
Broken clouds at a height of 1500 ft

TAF: EVVA 041407Z 0415/0424 07007KT 9999 BKN015

Weather observations and forecasts of more than 4000 airports (METAR and TAF reports).

The available stations are represented by yellow and red dots on the map.

Hover mouse over dot to see the name of the station.

Then click to see weather observations and forecasts.

To change the map : click on the green buttons with a black cross to zoom in, on the green button with a dash to zoom out, or on the green arrows for adjacent maps.


METAR-TAF: